sensor_id;sensor_type;location;lat;lon;timestamp;P1;durP1;ratioP1;P2;durP2;ratioP2
77262;SDS011;66373;52.334;4.806;2023-04-03T00:01:28;5.93;;;4.43;;
77262;SDS011;66373;52.334;4.806;2023-04-03T00:03:56;8.98;;;4.90;;
77262;SDS011;66373;52.334;4.806;2023-04-03T00:06:24;6.03;;;4.20;;
77262;SDS011;66373;52.334;4.806;2023-04-03T00:08:52;7.40;;;4.43;;
77262;SDS011;66373;52.334;4.806;2023-04-03T00:11:21;5.97;;;4.50;;
77262;SDS011;66373;52.334;4.806;2023-04-03T00:13:48;6.45;;;4.50;;
77262;SDS011;66373;52.334;4.806;2023-04-03T00:16:15;6.85;;;4.45;;
77262;SDS011;66373;52.334;4.806;2023-04-03T00:18:43;5.38;;;4.00;;
77262;SDS011;66373;52.334;4.806;2023-04-03T00:21:11;7.10;;;4.43;;
77262;SDS011;66373;52.334;4.806;2023-04-03T00:23:40;4.40;;;3.70;;
77262;SDS011;66373;52.334;4.806;2023-04-03T00:26:07;4.80;;;3.88;;
77262;SDS011;66373;52.334;4.806;2023-04-03T00:28:37;5.13;;;4.18;;
77262;SDS011;66373;52.334;4.806;2023-04-03T00:31:05;4.47;;;3.80;;
77262;SDS011;66373;52.334;4.806;2023-04-03T00:33:32;4.45;;;4.00;;
77262;SDS011;66373;52.334;4.806;2023-04-03T00:35:59;5.60;;;4.05;;
77262;SDS011;66373;52.334;4.806;2023-04-03T00:38:31;5.78;;;3.95;;
77262;SDS011;66373;52.334;4.806;2023-04-03T00:40:59;5.45;;;4.10;;
77262;SDS011;66373;52.334;4.806;2023-04-03T00:43:26;3.90;;;3.58;;
77262;SDS011;66373;52.334;4.806;2023-04-03T00:45:55;4.60;;;3.95;;
77262;SDS011;66373;52.334;4.806;2023-04-03T00:48:28;4.65;;;3.75;;
77262;SDS011;66373;52.334;4.806;2023-04-03T00:50:58;7.40;;;3.92;;
77262;SDS011;66373;52.334;4.806;2023-04-03T00:53:27;4.20;;;3.22;;
77262;SDS011;66373;52.334;4.806;2023-04-03T00:55:58;4.03;;;3.60;;
77262;SDS011;66373;52.334;4.806;2023-04-03T00:58:27;3.85;;;3.45;;
77262;SDS011;66373;52.334;4.806;2023-04-03T01:01:02;5.13;;;3.50;;
77262;SDS011;66373;52.334;4.806;2023-04-03T01:03:32;4.80;;;3.47;;
77262;SDS011;66373;52.334;4.806;2023-04-03T01:06:01;4.95;;;3.47;;
77262;SDS011;66373;52.334;4.806;2023-04-03T01:08:29;3.80;;;3.05;;
77262;SDS011;66373;52.334;4.806;2023-04-03T01:10:57;5.05;;;3.88;;
77262;SDS011;66373;52.334;4.806;2023-04-03T01:13:26;4.60;;;3.00;;
77262;SDS011;66373;52.334;4.806;2023-04-03T01:15:55;4.45;;;3.20;;
77262;SDS011;66373;52.334;4.806;2023-04-03T01:18:24;4.25;;;3.38;;
77262;SDS011;66373;52.334;4.806;2023-04-03T01:23:51;3.92;;;3.35;;
77262;SDS011;66373;52.334;4.806;2023-04-03T01:26:24;3.83;;;3.10;;
77262;SDS011;66373;52.334;4.806;2023-04-03T01:28:53;4.30;;;2.83;;
77262;SDS011;66373;52.334;4.806;2023-04-03T01:31:22;4.32;;;3.17;;
77262;SDS011;66373;52.334;4.806;2023-04-03T01:33:56;3.10;;;2.63;;
77262;SDS011;66373;52.334;4.806;2023-04-03T01:36:25;2.92;;;2.65;;
77262;SDS011;66373;52.334;4.806;2023-04-03T01:38:55;3.50;;;2.67;;
77262;SDS011;66373;52.334;4.806;2023-04-03T01:41:24;3.28;;;2.70;;
77262;SDS011;66373;52.334;4.806;2023-04-03T01:43:58;3.10;;;2.50;;
77262;SDS011;66373;52.334;4.806;2023-04-03T01:46:25;2.90;;;2.60;;
77262;SDS011;66373;52.334;4.806;2023-04-03T01:48:53;2.97;;;2.67;;
77262;SDS011;66373;52.334;4.806;2023-04-03T01:51:22;3.67;;;2.90;;
77262;SDS011;66373;52.334;4.806;2023-04-03T01:53:50;2.53;;;2.33;;
77262;SDS011;66373;52.334;4.806;2023-04-03T01:56:17;2.50;;;2.30;;
77262;SDS011;66373;52.334;4.806;2023-04-03T01:58:45;2.67;;;2.47;;
77262;SDS011;66373;52.334;4.806;2023-04-03T02:01:13;2.70;;;2.50;;
77262;SDS011;66373;52.334;4.806;2023-04-03T02:03:40;3.20;;;2.63;;
77262;SDS011;66373;52.334;4.806;2023-04-03T02:06:07;2.92;;;2.63;;
77262;SDS011;66373;52.334;4.806;2023-04-03T02:08:36;3.10;;;2.80;;
77262;SDS011;66373;52.334;4.806;2023-04-03T02:11:05;3.30;;;2.63;;
77262;SDS011;66373;52.334;4.806;2023-04-03T02:13:32;2.40;;;2.20;;
77262;SDS011;66373;52.334;4.806;2023-04-03T02:16:05;3.10;;;2.75;;
77262;SDS011;66373;52.334;4.806;2023-04-03T02:18:33;2.10;;;2.00;;
77262;SDS011;66373;52.334;4.806;2023-04-03T02:21:01;2.60;;;2.40;;
77262;SDS011;66373;52.334;4.806;2023-04-03T02:23:28;4.82;;;2.40;;
77262;SDS011;66373;52.334;4.806;2023-04-03T02:26:03;3.55;;;2.30;;
77262;SDS011;66373;52.334;4.806;2023-04-03T02:28:33;2.30;;;2.20;;
77262;SDS011;66373;52.334;4.806;2023-04-03T02:31:01;2.65;;;2.30;;
77262;SDS011;66373;52.334;4.806;2023-04-03T02:33:29;2.80;;;2.50;;
77262;SDS011;66373;52.334;4.806;2023-04-03T02:35:57;3.22;;;2.40;;
77262;SDS011;66373;52.334;4.806;2023-04-03T02:38:25;2.20;;;2.10;;
77262;SDS011;66373;52.334;4.806;2023-04-03T02:40:53;2.75;;;2.20;;
77262;SDS011;66373;52.334;4.806;2023-04-03T02:43:27;2.35;;;2.15;;
77262;SDS011;66373;52.334;4.806;2023-04-03T02:45:54;2.45;;;2.25;;
77262;SDS011;66373;52.334;4.806;2023-04-03T02:48:22;3.75;;;2.15;;
77262;SDS011;66373;52.334;4.806;2023-04-03T02:50:50;2.95;;;2.17;;
77262;SDS011;66373;52.334;4.806;2023-04-03T02:53:18;2.38;;;2.17;;
77262;SDS011;66373;52.334;4.806;2023-04-03T02:55:47;2.53;;;2.20;;
77262;SDS011;66373;52.334;4.806;2023-04-03T02:58:15;2.80;;;2.08;;
77262;SDS011;66373;52.334;4.806;2023-04-03T03:00:44;2.25;;;2.10;;
77262;SDS011;66373;52.334;4.806;2023-04-03T03:03:11;3.50;;;2.10;;
77262;SDS011;66373;52.334;4.806;2023-04-03T03:05:39;2.15;;;1.95;;
77262;SDS011;66373;52.334;4.806;2023-04-03T03:08:06;2.22;;;2.03;;
77262;SDS011;66373;52.334;4.806;2023-04-03T03:10:34;1.90;;;1.80;;
77262;SDS011;66373;52.334;4.806;2023-04-03T03:13:01;2.20;;;2.00;;
77262;SDS011;66373;52.334;4.806;2023-04-03T03:15:29;3.20;;;2.00;;
77262;SDS011;66373;52.334;4.806;2023-04-03T03:17:57;2.33;;;2.00;;
77262;SDS011;66373;52.334;4.806;2023-04-03T03:20:25;2.15;;;1.95;;
77262;SDS011;66373;52.334;4.806;2023-04-03T03:22:52;3.15;;;2.10;;
77262;SDS011;66373;52.334;4.806;2023-04-03T03:25:22;2.33;;;1.90;;
77262;SDS011;66373;52.334;4.806;2023-04-03T03:27:49;2.75;;;2.10;;
77262;SDS011;66373;52.334;4.806;2023-04-03T03:30:17;2.45;;;2.00;;
77262;SDS011;66373;52.334;4.806;2023-04-03T03:32:44;2.00;;;1.90;;
77262;SDS011;66373;52.334;4.806;2023-04-03T03:35:13;2.25;;;2.05;;
77262;SDS011;66373;52.334;4.806;2023-04-03T03:37:41;2.10;;;1.92;;
77262;SDS011;66373;52.334;4.806;2023-04-03T03:40:09;2.28;;;2.03;;
77262;SDS011;66373;52.334;4.806;2023-04-03T03:42:38;2.35;;;2.15;;
77262;SDS011;66373;52.334;4.806;2023-04-03T03:45:06;2.33;;;2.00;;
77262;SDS011;66373;52.334;4.806;2023-04-03T03:47:35;2.35;;;2.08;;
77262;SDS011;66373;52.334;4.806;2023-04-03T03:50:03;2.72;;;2.20;;
77262;SDS011;66373;52.334;4.806;2023-04-03T03:52:32;2.17;;;1.90;;
77262;SDS011;66373;52.334;4.806;2023-04-03T03:55:00;2.20;;;2.00;;
77262;SDS011;66373;52.334;4.806;2023-04-03T03:57:27;1.88;;;1.77;;
77262;SDS011;66373;52.334;4.806;2023-04-03T03:59:56;2.08;;;1.90;;
77262;SDS011;66373;52.334;4.806;2023-04-03T04:02:24;2.30;;;2.10;;
77262;SDS011;66373;52.334;4.806;2023-04-03T04:04:52;1.83;;;1.73;;
77262;SDS011;66373;52.334;4.806;2023-04-03T04:07:21;1.90;;;1.80;;
77262;SDS011;66373;52.334;4.806;2023-04-03T04:09:50;1.80;;;1.65;;
77262;SDS011;66373;52.334;4.806;2023-04-03T04:12:17;2.10;;;1.95;;
77262;SDS011;66373;52.334;4.806;2023-04-03T04:14:46;2.20;;;1.83;;
77262;SDS011;66373;52.334;4.806;2023-04-03T04:17:14;2.00;;;1.90;;
77262;SDS011;66373;52.334;4.806;2023-04-03T04:19:42;2.33;;;2.13;;
77262;SDS011;66373;52.334;4.806;2023-04-03T04:22:10;4.88;;;2.05;;
77262;SDS011;66373;52.334;4.806;2023-04-03T04:24:37;3.88;;;2.13;;
77262;SDS011;66373;52.334;4.806;2023-04-03T04:27:06;1.90;;;1.80;;
77262;SDS011;66373;52.334;4.806;2023-04-03T04:29:33;3.35;;;1.90;;
77262;SDS011;66373;52.334;4.806;2023-04-03T04:32:04;2.00;;;1.88;;
77262;SDS011;66373;52.334;4.806;2023-04-03T04:34:32;2.35;;;1.88;;
77262;SDS011;66373;52.334;4.806;2023-04-03T04:37:00;2.65;;;2.00;;
77262;SDS011;66373;52.334;4.806;2023-04-03T04:39:28;4.20;;;1.80;;
77262;SDS011;66373;52.334;4.806;2023-04-03T04:41:57;2.15;;;2.00;;
77262;SDS011;66373;52.334;4.806;2023-04-03T04:44:28;2.92;;;2.10;;
77262;SDS011;66373;52.334;4.806;2023-04-03T04:46:56;2.58;;;1.92;;
77262;SDS011;66373;52.334;4.806;2023-04-03T04:49:23;2.08;;;1.90;;
77262;SDS011;66373;52.334;4.806;2023-04-03T04:51:53;4.90;;;2.17;;
77262;SDS011;66373;52.334;4.806;2023-04-03T04:54:26;4.68;;;2.10;;
77262;SDS011;66373;52.334;4.806;2023-04-03T04:56:54;2.88;;;1.92;;
77262;SDS011;66373;52.334;4.806;2023-04-03T04:59:21;6.00;;;1.90;;
77262;SDS011;66373;52.334;4.806;2023-04-03T05:01:52;6.32;;;2.38;;
77262;SDS011;66373;52.334;4.806;2023-04-03T05:04:19;2.22;;;2.00;;
77262;SDS011;66373;52.334;4.806;2023-04-03T05:06:50;6.30;;;1.98;;
77262;SDS011;66373;52.334;4.806;2023-04-03T05:09:22;4.53;;;2.10;;
77262;SDS011;66373;52.334;4.806;2023-04-03T05:11:51;2.15;;;1.90;;
77262;SDS011;66373;52.334;4.806;2023-04-03T05:14:22;4.18;;;2.00;;
77262;SDS011;66373;52.334;4.806;2023-04-03T05:16:50;3.28;;;2.05;;
77262;SDS011;66373;52.334;4.806;2023-04-03T05:19:21;12.07;;;2.30;;
77262;SDS011;66373;52.334;4.806;2023-04-03T05:21:50;12.55;;;2.42;;
77262;SDS011;66373;52.334;4.806;2023-04-03T05:24:17;4.47;;;1.95;;
77262;SDS011;66373;52.334;4.806;2023-04-03T05:26:45;6.57;;;2.00;;
77262;SDS011;66373;52.334;4.806;2023-04-03T05:29:13;5.05;;;1.95;;
77262;SDS011;66373;52.334;4.806;2023-04-03T05:31:41;5.22;;;2.25;;
77262;SDS011;66373;52.334;4.806;2023-04-03T05:34:12;7.55;;;2.28;;
77262;SDS011;66373;52.334;4.806;2023-04-03T05:36:40;5.07;;;2.33;;
77262;SDS011;66373;52.334;4.806;2023-04-03T05:39:08;5.43;;;2.00;;
77262;SDS011;66373;52.334;4.806;2023-04-03T05:41:38;4.47;;;1.98;;
77262;SDS011;66373;52.334;4.806;2023-04-03T05:44:06;6.20;;;2.00;;
77262;SDS011;66373;52.334;4.806;2023-04-03T05:46:33;6.90;;;1.90;;
77262;SDS011;66373;52.334;4.806;2023-04-03T05:49:04;5.65;;;2.00;;
77262;SDS011;66373;52.334;4.806;2023-04-03T05:51:38;2.72;;;1.92;;
77262;SDS011;66373;52.334;4.806;2023-04-03T05:54:31;3.80;;;2.20;;
77262;SDS011;66373;52.334;4.806;2023-04-03T05:57:09;8.07;;;2.20;;
77262;SDS011;66373;52.334;4.806;2023-04-03T05:59:37;5.43;;;2.35;;
77262;SDS011;66373;52.334;4.806;2023-04-03T06:02:08;4.28;;;1.90;;
77262;SDS011;66373;52.334;4.806;2023-04-03T06:04:38;7.75;;;1.75;;
77262;SDS011;66373;52.334;4.806;2023-04-03T06:07:08;3.17;;;1.90;;
77262;SDS011;66373;52.334;4.806;2023-04-03T06:09:39;1.85;;;1.67;;
77262;SDS011;66373;52.334;4.806;2023-04-03T06:12:06;2.38;;;1.88;;
77262;SDS011;66373;52.334;4.806;2023-04-03T06:14:34;2.88;;;1.83;;
77262;SDS011;66373;52.334;4.806;2023-04-03T06:17:01;5.10;;;2.08;;
77262;SDS011;66373;52.334;4.806;2023-04-03T06:19:29;3.15;;;2.00;;
77262;SDS011;66373;52.334;4.806;2023-04-03T06:21:57;2.65;;;2.00;;
77262;SDS011;66373;52.334;4.806;2023-04-03T06:24:26;4.60;;;2.20;;
77262;SDS011;66373;52.334;4.806;2023-04-03T06:26:54;4.53;;;2.10;;
77262;SDS011;66373;52.334;4.806;2023-04-03T06:29:23;3.20;;;1.90;;
77262;SDS011;66373;52.334;4.806;2023-04-03T06:31:51;3.08;;;2.20;;
77262;SDS011;66373;52.334;4.806;2023-04-03T06:34:19;3.10;;;2.03;;
77262;SDS011;66373;52.334;4.806;2023-04-03T06:36:50;6.10;;;2.22;;
77262;SDS011;66373;52.334;4.806;2023-04-03T06:39:19;4.13;;;2.00;;
77262;SDS011;66373;52.334;4.806;2023-04-03T06:41:51;4.40;;;2.05;;
77262;SDS011;66373;52.334;4.806;2023-04-03T06:44:25;3.08;;;1.70;;
77262;SDS011;66373;52.334;4.806;2023-04-03T06:46:52;3.90;;;2.10;;
77262;SDS011;66373;52.334;4.806;2023-04-03T06:49:25;2.10;;;1.90;;
77262;SDS011;66373;52.334;4.806;2023-04-03T06:51:57;8.77;;;2.17;;
77262;SDS011;66373;52.334;4.806;2023-04-03T06:54:24;3.90;;;1.73;;
77262;SDS011;66373;52.334;4.806;2023-04-03T06:56:52;2.47;;;1.70;;
77262;SDS011;66373;52.334;4.806;2023-04-03T06:59:19;6.28;;;2.20;;
77262;SDS011;66373;52.334;4.806;2023-04-03T07:01:47;11.23;;;2.10;;
77262;SDS011;66373;52.334;4.806;2023-04-03T07:04:17;3.72;;;1.90;;
77262;SDS011;66373;52.334;4.806;2023-04-03T07:06:45;4.80;;;1.90;;
77262;SDS011;66373;52.334;4.806;2023-04-03T07:09:13;7.38;;;2.03;;
77262;SDS011;66373;52.334;4.806;2023-04-03T07:11:41;9.07;;;1.90;;
77262;SDS011;66373;52.334;4.806;2023-04-03T07:14:10;3.30;;;1.92;;
77262;SDS011;66373;52.334;4.806;2023-04-03T07:16:37;5.00;;;1.90;;
77262;SDS011;66373;52.334;4.806;2023-04-03T07:19:05;3.38;;;2.03;;
77262;SDS011;66373;52.334;4.806;2023-04-03T07:21:33;2.47;;;1.88;;
77262;SDS011;66373;52.334;4.806;2023-04-03T07:24:01;3.33;;;1.77;;
77262;SDS011;66373;52.334;4.806;2023-04-03T07:26:28;4.43;;;2.33;;
77262;SDS011;66373;52.334;4.806;2023-04-03T07:28:57;2.95;;;1.90;;
77262;SDS011;66373;52.334;4.806;2023-04-03T07:31:26;5.68;;;2.00;;
77262;SDS011;66373;52.334;4.806;2023-04-03T07:33:54;4.05;;;2.08;;
77262;SDS011;66373;52.334;4.806;2023-04-03T07:36:21;11.68;;;2.22;;
77262;SDS011;66373;52.334;4.806;2023-04-03T07:38:50;5.53;;;2.22;;
77262;SDS011;66373;52.334;4.806;2023-04-03T07:41:18;1.83;;;1.60;;
77262;SDS011;66373;52.334;4.806;2023-04-03T07:43:48;1.98;;;1.70;;
77262;SDS011;66373;52.334;4.806;2023-04-03T07:46:17;3.72;;;1.90;;
77262;SDS011;66373;52.334;4.806;2023-04-03T07:48:47;3.75;;;2.00;;
77262;SDS011;66373;52.334;4.806;2023-04-03T07:51:15;2.53;;;1.80;;
77262;SDS011;66373;52.334;4.806;2023-04-03T07:53:43;2.75;;;2.13;;
77262;SDS011;66373;52.334;4.806;2023-04-03T07:56:10;3.47;;;1.70;;
77262;SDS011;66373;52.334;4.806;2023-04-03T07:58:37;3.70;;;2.00;;
77262;SDS011;66373;52.334;4.806;2023-04-03T08:01:04;3.00;;;1.90;;
77262;SDS011;66373;52.334;4.806;2023-04-03T08:03:32;2.28;;;2.00;;
77262;SDS011;66373;52.334;4.806;2023-04-03T08:06:03;2.30;;;1.88;;
77262;SDS011;66373;52.334;4.806;2023-04-03T08:08:33;2.95;;;1.90;;
77262;SDS011;66373;52.334;4.806;2023-04-03T08:11:03;3.38;;;1.85;;
77262;SDS011;66373;52.334;4.806;2023-04-03T08:13:32;3.53;;;1.88;;
77262;SDS011;66373;52.334;4.806;2023-04-03T08:16:06;2.22;;;1.80;;
77262;SDS011;66373;52.334;4.806;2023-04-03T08:18:35;5.22;;;2.28;;
77262;SDS011;66373;52.334;4.806;2023-04-03T08:21:06;1.90;;;1.80;;
77262;SDS011;66373;52.334;4.806;2023-04-03T08:23:34;3.60;;;1.75;;
77262;SDS011;66373;52.334;4.806;2023-04-03T08:26:06;3.25;;;1.83;;
77262;SDS011;66373;52.334;4.806;2023-04-03T08:28:35;2.53;;;2.05;;
77262;SDS011;66373;52.334;4.806;2023-04-03T08:31:03;3.55;;;1.90;;
77262;SDS011;66373;52.334;4.806;2023-04-03T08:33:32;3.08;;;1.90;;
77262;SDS011;66373;52.334;4.806;2023-04-03T08:36:01;1.83;;;1.67;;
77262;SDS011;66373;52.334;4.806;2023-04-03T08:38:30;4.88;;;1.92;;
77262;SDS011;66373;52.334;4.806;2023-04-03T08:41:02;2.33;;;1.98;;
77262;SDS011;66373;52.334;4.806;2023-04-03T08:43:37;2.13;;;1.73;;
77262;SDS011;66373;52.334;4.806;2023-04-03T08:46:14;2.50;;;1.85;;
77262;SDS011;66373;52.334;4.806;2023-04-03T08:48:46;2.33;;;1.67;;
77262;SDS011;66373;52.334;4.806;2023-04-03T08:51:19;3.22;;;2.25;;
77262;SDS011;66373;52.334;4.806;2023-04-03T08:53:54;2.08;;;1.80;;
77262;SDS011;66373;52.334;4.806;2023-04-03T08:56:26;1.98;;;1.80;;
77262;SDS011;66373;52.334;4.806;2023-04-03T08:58:55;2.85;;;1.90;;
77262;SDS011;66373;52.334;4.806;2023-04-03T09:01:27;2.13;;;1.85;;
77262;SDS011;66373;52.334;4.806;2023-04-03T09:04:00;2.35;;;1.80;;
77262;SDS011;66373;52.334;4.806;2023-04-03T09:06:28;1.67;;;1.58;;
77262;SDS011;66373;52.334;4.806;2023-04-03T09:09:06;2.25;;;1.58;;
77262;SDS011;66373;52.334;4.806;2023-04-03T09:11:44;5.22;;;2.00;;
77262;SDS011;66373;52.334;4.806;2023-04-03T09:14:19;1.80;;;1.70;;
77262;SDS011;66373;52.334;4.806;2023-04-03T09:16:54;2.30;;;1.52;;
77262;SDS011;66373;52.334;4.806;2023-04-03T09:19:27;5.22;;;1.98;;
77262;SDS011;66373;52.334;4.806;2023-04-03T09:22:03;2.55;;;2.00;;
77262;SDS011;66373;52.334;4.806;2023-04-03T09:24:44;1.92;;;1.83;;
77262;SDS011;66373;52.334;4.806;2023-04-03T09:27:13;2.78;;;1.67;;
77262;SDS011;66373;52.334;4.806;2023-04-03T09:29:40;2.03;;;1.83;;
77262;SDS011;66373;52.334;4.806;2023-04-03T09:32:22;1.70;;;1.52;;
77262;SDS011;66373;52.334;4.806;2023-04-03T09:34:53;1.95;;;1.73;;
77262;SDS011;66373;52.334;4.806;2023-04-03T09:37:36;2.08;;;1.60;;
77262;SDS011;66373;52.334;4.806;2023-04-03T09:40:12;2.10;;;1.55;;
77262;SDS011;66373;52.334;4.806;2023-04-03T09:42:57;2.72;;;2.03;;
77262;SDS011;66373;52.334;4.806;2023-04-03T09:45:28;1.73;;;1.63;;
77262;SDS011;66373;52.334;4.806;2023-04-03T09:48:04;2.03;;;1.92;;
77262;SDS011;66373;52.334;4.806;2023-04-03T09:50:34;1.63;;;1.52;;
77262;SDS011;66373;52.334;4.806;2023-04-03T09:53:05;1.60;;;1.50;;
77262;SDS011;66373;52.334;4.806;2023-04-03T09:55:42;2.38;;;1.80;;
77262;SDS011;66373;52.334;4.806;2023-04-03T09:58:24;1.98;;;1.70;;
77262;SDS011;66373;52.334;4.806;2023-04-03T10:00:54;1.85;;;1.70;;
77262;SDS011;66373;52.334;4.806;2023-04-03T10:03:24;1.70;;;1.60;;
77262;SDS011;66373;52.334;4.806;2023-04-03T10:05:55;1.88;;;1.73;;
77262;SDS011;66373;52.334;4.806;2023-04-03T10:08:27;2.03;;;1.77;;
77262;SDS011;66373;52.334;4.806;2023-04-03T10:13:54;1.73;;;1.63;;
77262;SDS011;66373;52.334;4.806;2023-04-03T10:16:26;1.63;;;1.52;;
77262;SDS011;66373;52.334;4.806;2023-04-03T10:19:11;2.63;;;2.00;;
77262;SDS011;66373;52.334;4.806;2023-04-03T10:21:56;1.98;;;1.70;;
77262;SDS011;66373;52.334;4.806;2023-04-03T10:27:01;1.73;;;1.60;;
77262;SDS011;66373;52.334;4.806;2023-04-03T10:29:40;1.88;;;1.77;;
77262;SDS011;66373;52.334;4.806;2023-04-03T10:32:26;2.28;;;1.65;;
77262;SDS011;66373;52.334;4.806;2023-04-03T10:35:19;1.75;;;1.65;;
77262;SDS011;66373;52.334;4.806;2023-04-03T10:38:04;2.67;;;1.58;;
77262;SDS011;66373;52.334;4.806;2023-04-03T10:40:41;1.77;;;1.67;;
77262;SDS011;66373;52.334;4.806;2023-04-03T10:43:20;1.63;;;1.52;;
77262;SDS011;66373;52.334;4.806;2023-04-03T10:45:53;1.65;;;1.50;;
77262;SDS011;66373;52.334;4.806;2023-04-03T10:48:31;2.33;;;1.50;;
77262;SDS011;66373;52.334;4.806;2023-04-03T10:51:16;1.60;;;1.50;;
77262;SDS011;66373;52.334;4.806;2023-04-03T10:53:53;1.58;;;1.48;;
77262;SDS011;66373;52.334;4.806;2023-04-03T10:56:30;1.80;;;1.70;;
77262;SDS011;66373;52.334;4.806;2023-04-03T10:59:13;1.63;;;1.50;;
77262;SDS011;66373;52.334;4.806;2023-04-03T11:01:46;3.15;;;1.95;;
77262;SDS011;66373;52.334;4.806;2023-04-03T11:04:19;4.88;;;1.70;;
77262;SDS011;66373;52.334;4.806;2023-04-03T11:06:53;1.63;;;1.52;;
77262;SDS011;66373;52.334;4.806;2023-04-03T11:09:26;4.25;;;2.00;;
77262;SDS011;66373;52.334;4.806;2023-04-03T11:12:09;2.80;;;1.83;;
77262;SDS011;66373;52.334;4.806;2023-04-03T11:17:28;1.77;;;1.67;;
77262;SDS011;66373;52.334;4.806;2023-04-03T11:20:03;1.40;;;1.40;;
77262;SDS011;66373;52.334;4.806;2023-04-03T11:22:53;2.15;;;1.58;;
77262;SDS011;66373;52.334;4.806;2023-04-03T11:25:27;1.40;;;1.40;;
77262;SDS011;66373;52.334;4.806;2023-04-03T11:28:00;1.73;;;1.63;;
77262;SDS011;66373;52.334;4.806;2023-04-03T11:30:37;2.08;;;1.85;;
77262;SDS011;66373;52.334;4.806;2023-04-03T11:33:28;2.38;;;1.70;;
77262;SDS011;66373;52.334;4.806;2023-04-03T11:36:14;1.95;;;1.80;;
77262;SDS011;66373;52.334;4.806;2023-04-03T11:38:52;1.85;;;1.75;;
77262;SDS011;66373;52.334;4.806;2023-04-03T11:41:25;2.13;;;1.92;;
77262;SDS011;66373;52.334;4.806;2023-04-03T11:43:55;3.17;;;2.30;;
77262;SDS011;66373;52.334;4.806;2023-04-03T11:46:36;2.17;;;2.00;;
77262;SDS011;66373;52.334;4.806;2023-04-03T11:58:22;2.85;;;2.30;;
77262;SDS011;66373;52.334;4.806;2023-04-03T12:00:59;2.35;;;2.03;;
77262;SDS011;66373;52.334;4.806;2023-04-03T12:03:31;2.63;;;2.30;;
77262;SDS011;66373;52.334;4.806;2023-04-03T12:06:49;5.15;;;2.28;;
77262;SDS011;66373;52.334;4.806;2023-04-03T12:09:24;3.75;;;2.35;;
77262;SDS011;66373;52.334;4.806;2023-04-03T12:11:54;2.45;;;2.03;;
77262;SDS011;66373;52.334;4.806;2023-04-03T12:14:23;2.13;;;1.92;;
77262;SDS011;66373;52.334;4.806;2023-04-03T12:16:52;2.38;;;2.10;;
77262;SDS011;66373;52.334;4.806;2023-04-03T12:19:38;3.08;;;2.20;;
77262;SDS011;66373;52.334;4.806;2023-04-03T12:22:14;3.67;;;2.13;;
77262;SDS011;66373;52.334;4.806;2023-04-03T12:24:46;2.50;;;2.30;;
77262;SDS011;66373;52.334;4.806;2023-04-03T12:27:23;2.70;;;2.17;;
77262;SDS011;66373;52.334;4.806;2023-04-03T12:29:58;3.17;;;2.33;;
77262;SDS011;66373;52.334;4.806;2023-04-03T12:32:48;2.65;;;2.38;;
77262;SDS011;66373;52.334;4.806;2023-04-03T12:35:31;2.33;;;2.13;;
77262;SDS011;66373;52.334;4.806;2023-04-03T12:41:18;3.15;;;1.92;;
77262;SDS011;66373;52.334;4.806;2023-04-03T12:43:58;2.45;;;1.88;;
77262;SDS011;66373;52.334;4.806;2023-04-03T12:46:36;1.98;;;1.88;;
77262;SDS011;66373;52.334;4.806;2023-04-03T12:49:12;2.08;;;1.98;;
77262;SDS011;66373;52.334;4.806;2023-04-03T12:51:51;2.00;;;1.80;;
77262;SDS011;66373;52.334;4.806;2023-04-03T12:54:20;2.13;;;1.92;;
77262;SDS011;66373;52.334;4.806;2023-04-03T12:56:50;2.13;;;1.73;;
77262;SDS011;66373;52.334;4.806;2023-04-03T12:59:20;2.00;;;1.90;;
77262;SDS011;66373;52.334;4.806;2023-04-03T13:01:55;1.63;;;1.52;;
77262;SDS011;66373;52.334;4.806;2023-04-03T13:04:24;2.35;;;1.90;;
77262;SDS011;66373;52.334;4.806;2023-04-03T13:06:54;2.10;;;2.00;;
77262;SDS011;66373;52.334;4.806;2023-04-03T13:09:23;1.90;;;1.80;;
77262;SDS011;66373;52.334;4.806;2023-04-03T13:11:54;2.72;;;1.90;;
77262;SDS011;66373;52.334;4.806;2023-04-03T13:15:40;3.13;;;1.83;;
77262;SDS011;66373;52.334;4.806;2023-04-03T13:17:54;2.10;;;1.73;;
77262;SDS011;66373;52.334;4.806;2023-04-03T13:20:25;5.13;;;2.00;;
77262;SDS011;66373;52.334;4.806;2023-04-03T13:23:02;2.10;;;1.50;;
77262;SDS011;66373;52.334;4.806;2023-04-03T13:25:34;2.60;;;1.83;;
77262;SDS011;66373;52.334;4.806;2023-04-03T13:28:05;1.88;;;1.70;;
77262;SDS011;66373;52.334;4.806;2023-04-03T13:30:34;1.65;;;1.55;;
77262;SDS011;66373;52.334;4.806;2023-04-03T13:33:04;2.28;;;1.80;;
77262;SDS011;66373;52.334;4.806;2023-04-03T13:35:45;3.08;;;1.83;;
77262;SDS011;66373;52.334;4.806;2023-04-03T13:38:23;1.80;;;1.70;;
77262;SDS011;66373;52.334;4.806;2023-04-03T13:40:52;4.18;;;1.67;;
77262;SDS011;66373;52.334;4.806;2023-04-03T13:43:22;1.60;;;1.50;;
77262;SDS011;66373;52.334;4.806;2023-04-03T13:45:56;2.78;;;1.50;;
77262;SDS011;66373;52.334;4.806;2023-04-03T13:48:35;2.28;;;1.60;;
77262;SDS011;66373;52.334;4.806;2023-04-03T13:51:05;1.60;;;1.50;;
77262;SDS011;66373;52.334;4.806;2023-04-03T13:53:45;2.03;;;1.52;;
77262;SDS011;66373;52.334;4.806;2023-04-03T13:56:19;2.05;;;1.50;;
77262;SDS011;66373;52.334;4.806;2023-04-03T13:58:55;1.83;;;1.73;;
77262;SDS011;66373;52.334;4.806;2023-04-03T14:01:32;3.45;;;1.70;;
77262;SDS011;66373;52.334;4.806;2023-04-03T14:04:10;1.60;;;1.50;;
77262;SDS011;66373;52.334;4.806;2023-04-03T14:06:41;2.97;;;1.40;;
77262;SDS011;66373;52.334;4.806;2023-04-03T14:09:10;1.60;;;1.50;;
77262;SDS011;66373;52.334;4.806;2023-04-03T14:11:39;1.70;;;1.40;;
77262;SDS011;66373;52.334;4.806;2023-04-03T14:14:09;2.00;;;1.75;;
77262;SDS011;66373;52.334;4.806;2023-04-03T14:16:41;2.40;;;1.60;;
77262;SDS011;66373;52.334;4.806;2023-04-03T14:19:17;1.52;;;1.40;;
77262;SDS011;66373;52.334;4.806;2023-04-03T14:21:47;1.60;;;1.50;;
77262;SDS011;66373;52.334;4.806;2023-04-03T14:24:19;2.70;;;1.58;;
77262;SDS011;66373;52.334;4.806;2023-04-03T14:26:47;1.80;;;1.70;;
77262;SDS011;66373;52.334;4.806;2023-04-03T14:29:17;4.18;;;1.60;;
77262;SDS011;66373;52.334;4.806;2023-04-03T14:31:48;3.47;;;1.65;;
77262;SDS011;66373;52.334;4.806;2023-04-03T14:34:16;2.53;;;1.60;;
77262;SDS011;66373;52.334;4.806;2023-04-03T14:36:47;3.53;;;1.52;;
77262;SDS011;66373;52.334;4.806;2023-04-03T14:39:16;1.98;;;1.70;;
77262;SDS011;66373;52.334;4.806;2023-04-03T14:41:49;2.55;;;1.60;;
77262;SDS011;66373;52.334;4.806;2023-04-03T14:44:17;1.40;;;1.30;;
77262;SDS011;66373;52.334;4.806;2023-04-03T14:46:45;1.58;;;1.50;;
77262;SDS011;66373;52.334;4.806;2023-04-03T14:49:14;4.10;;;1.60;;
77262;SDS011;66373;52.334;4.806;2023-04-03T14:51:43;2.60;;;1.40;;
77262;SDS011;66373;52.334;4.806;2023-04-03T14:54:18;2.22;;;1.40;;
77262;SDS011;66373;52.334;4.806;2023-04-03T14:56:53;2.85;;;1.58;;
77262;SDS011;66373;52.334;4.806;2023-04-03T14:59:22;1.70;;;1.58;;
77262;SDS011;66373;52.334;4.806;2023-04-03T15:01:51;2.00;;;1.67;;
77262;SDS011;66373;52.334;4.806;2023-04-03T15:04:19;1.63;;;1.45;;
77262;SDS011;66373;52.334;4.806;2023-04-03T15:06:48;3.22;;;1.55;;
77262;SDS011;66373;52.334;4.806;2023-04-03T15:09:20;3.13;;;1.63;;
77262;SDS011;66373;52.334;4.806;2023-04-03T15:11:50;1.60;;;1.50;;
77262;SDS011;66373;52.334;4.806;2023-04-03T15:14:20;2.17;;;1.63;;
77262;SDS011;66373;52.334;4.806;2023-04-03T15:16:48;1.67;;;1.50;;
77262;SDS011;66373;52.334;4.806;2023-04-03T15:19:21;1.80;;;1.70;;
77262;SDS011;66373;52.334;4.806;2023-04-03T15:21:50;2.10;;;1.50;;
77262;SDS011;66373;52.334;4.806;2023-04-03T15:24:17;1.45;;;1.35;;
77262;SDS011;66373;52.334;4.806;2023-04-03T15:26:46;1.23;;;1.23;;
77262;SDS011;66373;52.334;4.806;2023-04-03T15:29:16;4.50;;;1.30;;
77262;SDS011;66373;52.334;4.806;2023-04-03T15:31:43;1.50;;;1.40;;
77262;SDS011;66373;52.334;4.806;2023-04-03T15:34:10;2.50;;;1.50;;
77262;SDS011;66373;52.334;4.806;2023-04-03T15:36:37;2.70;;;1.50;;